sensor_id;sensor_type;location;lat;lon;timestamp;temperature;humidity
9544;DHT22;30418;51.45933468;7.33152330;2022-11-15T00:02:43;12.30;65.80
9544;DHT22;30418;51.45933468;7.33152330;2022-11-15T00:05:34;12.30;65.80
9544;DHT22;30418;51.45933468;7.33152330;2022-11-15T00:08:22;12.30;66.00
9544;DHT22;30418;51.45933468;7.33152330;2022-11-15T00:11:12;12.30;66.00
9544;DHT22;30418;51.45933468;7.33152330;2022-11-15T00:13:59;12.30;66.20
9544;DHT22;30418;51.45933468;7.33152330;2022-11-15T00:16:47;12.30;66.20
9544;DHT22;30418;51.45933468;7.33152330;2022-11-15T00:19:34;12.30;66.20
9544;DHT22;30418;51.45933468;7.33152330;2022-11-15T00:22:22;12.40;66.40
9544;DHT22;30418;51.45933468;7.33152330;2022-11-15T00:25:09;12.40;66.60
9544;DHT22;30418;51.45933468;7.33152330;2022-11-15T00:27:59;12.40;66.60
9544;DHT22;30418;51.45933468;7.33152330;2022-11-15T00:30:46;12.40;66.90
9544;DHT22;30418;51.45933468;7.33152330;2022-11-15T00:33:33;12.40;66.80
9544;DHT22;30418;51.45933468;7.33152330;2022-11-15T00:36:20;12.50;67.00
9544;DHT22;30418;51.45933468;7.33152330;2022-11-15T00:39:08;12.50;67.10
9544;DHT22;30418;51.45933468;7.33152330;2022-11-15T00:41:55;12.50;67.10
9544;DHT22;30418;51.45933468;7.33152330;2022-11-15T00:44:43;12.50;67.20
9544;DHT22;30418;51.45933468;7.33152330;2022-11-15T00:47:31;12.50;67.60
9544;DHT22;30418;51.45933468;7.33152330;2022-11-15T00:50:18;12.60;67.70
9544;DHT22;30418;51.45933468;7.33152330;2022-11-15T00:53:06;12.60;67.70
9544;DHT22;30418;51.45933468;7.33152330;2022-11-15T00:55:53;12.60;67.70
9544;DHT22;30418;51.45933468;7.33152330;2022-11-15T00:58:40;12.60;67.70
9544;DHT22;30418;51.45933468;7.33152330;2022-11-15T01:01:28;12.70;67.90
9544;DHT22;30418;51.45933468;7.33152330;2022-11-15T01:04:15;12.70;67.90
9544;DHT22;30418;51.45933468;7.33152330;2022-11-15T01:07:02;12.70;67.90
9544;DHT22;30418;51.45933468;7.33152330;2022-11-15T01:09:49;12.70;68.00
9544;DHT22;30418;51.45933468;7.33152330;2022-11-15T01:12:37;12.80;68.20
9544;DHT22;30418;51.45933468;7.33152330;2022-11-15T01:15:24;12.80;68.40
9544;DHT22;30418;51.45933468;7.33152330;2022-11-15T01:18:13;12.80;68.40
9544;DHT22;30418;51.45933468;7.33152330;2022-11-15T01:21:05;12.90;68.60
9544;DHT22;30418;51.45933468;7.33152330;2022-11-15T01:23:54;12.90;68.70
9544;DHT22;30418;51.45933468;7.33152330;2022-11-15T01:26:41;12.90;68.50
9544;DHT22;30418;51.45933468;7.33152330;2022-11-15T01:29:28;12.90;68.50
9544;DHT22;30418;51.45933468;7.33152330;2022-11-15T01:32:15;13.00;68.60
9544;DHT22;30418;51.45933468;7.33152330;2022-11-15T01:35:04;13.00;68.60
9544;DHT22;30418;51.45933468;7.33152330;2022-11-15T01:37:55;13.00;68.70
9544;DHT22;30418;51.45933468;7.33152330;2022-11-15T01:40:42;13.00;68.60
9544;DHT22;30418;51.45933468;7.33152330;2022-11-15T01:43:30;13.00;69.10
9544;DHT22;30418;51.45933468;7.33152330;2022-11-15T01:46:25;13.10;68.80
9544;DHT22;30418;51.45933468;7.33152330;2022-11-15T01:49:19;13.10;68.90
9544;DHT22;30418;51.45933468;7.33152330;2022-11-15T01:52:12;13.10;68.90
9544;DHT22;30418;51.45933468;7.33152330;2022-11-15T01:55:05;13.10;69.00
9544;DHT22;30418;51.45933468;7.33152330;2022-11-15T01:57:59;13.10;68.90
9544;DHT22;30418;51.45933468;7.33152330;2022-11-15T02:00:48;13.10;68.90
9544;DHT22;30418;51.45933468;7.33152330;2022-11-15T02:03:41;13.20;69.00
9544;DHT22;30418;51.45933468;7.33152330;2022-11-15T02:06:31;13.20;69.10
9544;DHT22;30418;51.45933468;7.33152330;2022-11-15T02:09:20;13.20;68.90
9544;DHT22;30418;51.45933468;7.33152330;2022-11-15T02:12:09;13.20;69.10
9544;DHT22;30418;51.45933468;7.33152330;2022-11-15T02:14:57;13.20;69.10
9544;DHT22;30418;51.45933468;7.33152330;2022-11-15T02:18:03;13.30;69.10
9544;DHT22;30418;51.45933468;7.33152330;2022-11-15T02:21:13;13.30;69.40
9544;DHT22;30418;51.45933468;7.33152330;2022-11-15T02:24:35;13.30;69.50
9544;DHT22;30418;51.45933468;7.33152330;2022-11-15T02:27:52;13.30;69.50
9544;DHT22;30418;51.45933468;7.33152330;2022-11-15T02:30:48;13.30;69.30
9544;DHT22;30418;51.45933468;7.33152330;2022-11-15T02:33:42;13.30;69.20
9544;DHT22;30418;51.45933468;7.33152330;2022-11-15T02:36:40;13.30;69.30
9544;DHT22;30418;51.45933468;7.33152330;2022-11-15T02:39:34;13.30;69.30
9544;DHT22;30418;51.45933468;7.33152330;2022-11-15T02:42:25;13.30;69.30
9544;DHT22;30418;51.45933468;7.33152330;2022-11-15T02:45:35;13.30;69.20
9544;DHT22;30418;51.45933468;7.33152330;2022-11-15T02:48:26;13.30;69.30
9544;DHT22;30418;51.45933468;7.33152330;2022-11-15T02:51:13;13.30;69.30
9544;DHT22;30418;51.45933468;7.33152330;2022-11-15T02:54:01;13.30;69.30
9544;DHT22;30418;51.45933468;7.33152330;2022-11-15T02:56:49;13.40;69.30
9544;DHT22;30418;51.45933468;7.33152330;2022-11-15T03:00:05;13.30;69.30
9544;DHT22;30418;51.45933468;7.33152330;2022-11-15T03:03:04;13.40;69.80
9544;DHT22;30418;51.45933468;7.33152330;2022-11-15T03:06:07;13.40;69.50
9544;DHT22;30418;51.45933468;7.33152330;2022-11-15T03:09:05;13.30;69.40
9544;DHT22;30418;51.45933468;7.33152330;2022-11-15T03:12:01;13.30;69.40
9544;DHT22;30418;51.45933468;7.33152330;2022-11-15T03:14:57;13.40;69.70
9544;DHT22;30418;51.45933468;7.33152330;2022-11-15T03:17:51;13.30;69.60
9544;DHT22;30418;51.45933468;7.33152330;2022-11-15T03:20:40;13.30;69.50
9544;DHT22;30418;51.45933468;7.33152330;2022-11-15T03:23:31;13.30;69.50
9544;DHT22;30418;51.45933468;7.33152330;2022-11-15T03:26:20;13.30;69.50
9544;DHT22;30418;51.45933468;7.33152330;2022-11-15T03:29:11;13.40;69.60
9544;DHT22;30418;51.45933468;7.33152330;2022-11-15T03:32:03;13.40;69.60
9544;DHT22;30418;51.45933468;7.33152330;2022-11-15T03:34:56;13.40;69.60
9544;DHT22;30418;51.45933468;7.33152330;2022-11-15T03:37:50;13.30;69.50
9544;DHT22;30418;51.45933468;7.33152330;2022-11-15T03:40:42;13.40;69.90
9544;DHT22;30418;51.45933468;7.33152330;2022-11-15T03:43:39;13.40;69.70
9544;DHT22;30418;51.45933468;7.33152330;2022-11-15T03:46:33;13.40;69.70
9544;DHT22;30418;51.45933468;7.33152330;2022-11-15T03:49:27;13.40;69.80
9544;DHT22;30418;51.45933468;7.33152330;2022-11-15T03:52:17;13.40;69.80
9544;DHT22;30418;51.45933468;7.33152330;2022-11-15T03:55:07;13.40;69.80
9544;DHT22;30418;51.45933468;7.33152330;2022-11-15T03:58:00;13.40;69.90
9544;DHT22;30418;51.45933468;7.33152330;2022-11-15T04:00:47;13.40;70.00
9544;DHT22;30418;51.45933468;7.33152330;2022-11-15T04:03:34;13.40;70.00
9544;DHT22;30418;51.45933468;7.33152330;2022-11-15T04:06:21;13.40;70.00
9544;DHT22;30418;51.45933468;7.33152330;2022-11-15T04:09:08;13.40;70.00
9544;DHT22;30418;51.45933468;7.33152330;2022-11-15T04:11:56;13.50;70.10
9544;DHT22;30418;51.45933468;7.33152330;2022-11-15T04:14:44;13.50;70.10
9544;DHT22;30418;51.45933468;7.33152330;2022-11-15T04:17:52;13.50;70.20
9544;DHT22;30418;51.45933468;7.33152330;2022-11-15T04:20:40;13.50;70.20
9544;DHT22;30418;51.45933468;7.33152330;2022-11-15T04:23:45;13.50;70.10
9544;DHT22;30418;51.45933468;7.33152330;2022-11-15T04:26:50;13.50;70.10
9544;DHT22;30418;51.45933468;7.33152330;2022-11-15T04:29:37;13.50;70.10
9544;DHT22;30418;51.45933468;7.33152330;2022-11-15T04:32:26;13.50;70.20
9544;DHT22;30418;51.45933468;7.33152330;2022-11-15T04:35:14;13.50;70.20
9544;DHT22;30418;51.45933468;7.33152330;2022-11-15T04:38:02;13.50;70.20
9544;DHT22;30418;51.45933468;7.33152330;2022-11-15T04:40:49;13.50;70.30
9544;DHT22;30418;51.45933468;7.33152330;2022-11-15T04:43:37;13.50;70.30
9544;DHT22;30418;51.45933468;7.33152330;2022-11-15T04:46:24;13.60;70.40
9544;DHT22;30418;51.45933468;7.33152330;2022-11-15T04:49:13;13.50;70.40
9544;DHT22;30418;51.45933468;7.33152330;2022-11-15T04:52:00;13.50;70.50
9544;DHT22;30418;51.45933468;7.33152330;2022-11-15T04:54:47;13.50;70.40
9544;DHT22;30418;51.45933468;7.33152330;2022-11-15T04:57:34;13.60;70.60
9544;DHT22;30418;51.45933468;7.33152330;2022-11-15T05:00:21;13.60;70.60
9544;DHT22;30418;51.45933468;7.33152330;2022-11-15T05:03:09;13.60;70.60
9544;DHT22;30418;51.45933468;7.33152330;2022-11-15T05:06:16;13.60;70.70
9544;DHT22;30418;51.45933468;7.33152330;2022-11-15T05:09:04;13.60;70.60
9544;DHT22;30418;51.45933468;7.33152330;2022-11-15T05:11:51;13.60;70.70
9544;DHT22;30418;51.45933468;7.33152330;2022-11-15T05:14:38;13.60;70.60
9544;DHT22;30418;51.45933468;7.33152330;2022-11-15T05:17:25;13.60;70.60
9544;DHT22;30418;51.45933468;7.33152330;2022-11-15T05:20:13;13.70;70.80
9544;DHT22;30418;51.45933468;7.33152330;2022-11-15T05:23:01;13.70;70.80
9544;DHT22;30418;51.45933468;7.33152330;2022-11-15T05:25:48;13.70;70.90
9544;DHT22;30418;51.45933468;7.33152330;2022-11-15T05:28:37;13.70;70.70
9544;DHT22;30418;51.45933468;7.33152330;2022-11-15T05:31:25;13.70;70.80
9544;DHT22;30418;51.45933468;7.33152330;2022-11-15T05:34:12;13.70;70.80
9544;DHT22;30418;51.45933468;7.33152330;2022-11-15T05:37:00;13.70;70.80
9544;DHT22;30418;51.45933468;7.33152330;2022-11-15T05:39:48;13.70;70.80
9544;DHT22;30418;51.45933468;7.33152330;2022-11-15T05:42:35;13.70;70.90
9544;DHT22;30418;51.45933468;7.33152330;2022-11-15T05:45:23;13.70;70.90
9544;DHT22;30418;51.45933468;7.33152330;2022-11-15T05:48:12;13.70;70.90
9544;DHT22;30418;51.45933468;7.33152330;2022-11-15T05:50:59;13.70;70.90
9544;DHT22;30418;51.45933468;7.33152330;2022-11-15T05:53:47;13.70;70.90
9544;DHT22;30418;51.45933468;7.33152330;2022-11-15T05:56:37;13.80;71.10
9544;DHT22;30418;51.45933468;7.33152330;2022-11-15T05:59:24;13.80;71.10
9544;DHT22;30418;51.45933468;7.33152330;2022-11-15T06:02:11;13.80;71.00
9544;DHT22;30418;51.45933468;7.33152330;2022-11-15T06:04:58;13.80;71.00
9544;DHT22;30418;51.45933468;7.33152330;2022-11-15T06:07:45;13.80;71.10
9544;DHT22;30418;51.45933468;7.33152330;2022-11-15T06:10:33;13.80;71.10
9544;DHT22;30418;51.45933468;7.33152330;2022-11-15T06:13:21;13.80;71.20
9544;DHT22;30418;51.45933468;7.33152330;2022-11-15T06:16:08;13.80;71.20
9544;DHT22;30418;51.45933468;7.33152330;2022-11-15T06:18:56;13.90;71.30
9544;DHT22;30418;51.45933468;7.33152330;2022-11-15T06:21:43;13.80;71.20
9544;DHT22;30418;51.45933468;7.33152330;2022-11-15T06:24:30;13.80;71.30
9544;DHT22;30418;51.45933468;7.33152330;2022-11-15T06:27:17;13.90;71.30
9544;DHT22;30418;51.45933468;7.33152330;2022-11-15T06:30:07;13.90;71.40
9544;DHT22;30418;51.45933468;7.33152330;2022-11-15T06:32:59;13.90;71.60
9544;DHT22;30418;51.45933468;7.33152330;2022-11-15T06:35:48;13.90;71.60
9544;DHT22;30418;51.45933468;7.33152330;2022-11-15T06:38:35;13.90;71.30
9544;DHT22;30418;51.45933468;7.33152330;2022-11-15T06:41:22;13.90;71.50
9544;DHT22;30418;51.45933468;7.33152330;2022-11-15T06:44:10;13.90;71.40
9544;DHT22;30418;51.45933468;7.33152330;2022-11-15T06:46:59;13.90;71.30
9544;DHT22;30418;51.45933468;7.33152330;2022-11-15T06:49:46;13.90;71.40
9544;DHT22;30418;51.45933468;7.33152330;2022-11-15T06:52:34;13.90;71.30
9544;DHT22;30418;51.45933468;7.33152330;2022-11-15T06:55:21;13.90;71.20
9544;DHT22;30418;51.45933468;7.33152330;2022-11-15T06:58:08;14.00;71.40
9544;DHT22;30418;51.45933468;7.33152330;2022-11-15T07:00:59;13.90;71.20
9544;DHT22;30418;51.45933468;7.33152330;2022-11-15T07:03:48;14.00;71.40
9544;DHT22;30418;51.45933468;7.33152330;2022-11-15T07:06:35;14.00;71.40
9544;DHT22;30418;51.45933468;7.33152330;2022-11-15T07:09:22;14.00;71.30
9544;DHT22;30418;51.45933468;7.33152330;2022-11-15T07:12:09;14.00;71.20
9544;DHT22;30418;51.45933468;7.33152330;2022-11-15T07:14:57;14.00;71.20
9544;DHT22;30418;51.45933468;7.33152330;2022-11-15T07:17:44;14.00;71.20
9544;DHT22;30418;51.45933468;7.33152330;2022-11-15T07:20:33;14.00;71.10
9544;DHT22;30418;51.45933468;7.33152330;2022-11-15T07:23:20;14.00;71.20
9544;DHT22;30418;51.45933468;7.33152330;2022-11-15T07:26:08;14.00;71.10
9544;DHT22;30418;51.45933468;7.33152330;2022-11-15T07:28:55;14.00;71.00
9544;DHT22;30418;51.45933468;7.33152330;2022-11-15T07:31:42;14.00;71.00
9544;DHT22;30418;51.45933468;7.33152330;2022-11-15T07:34:29;14.00;70.90
9544;DHT22;30418;51.45933468;7.33152330;2022-11-15T07:37:18;14.10;70.90
9544;DHT22;30418;51.45933468;7.33152330;2022-11-15T07:40:06;14.10;70.90
9544;DHT22;30418;51.45933468;7.33152330;2022-11-15T07:42:59;14.10;70.80
9544;DHT22;30418;51.45933468;7.33152330;2022-11-15T07:45:47;14.10;70.80
9544;DHT22;30418;51.45933468;7.33152330;2022-11-15T07:48:39;14.10;70.50
9544;DHT22;30418;51.45933468;7.33152330;2022-11-15T07:51:30;14.00;70.30
9544;DHT22;30418;51.45933468;7.33152330;2022-11-15T07:54:18;14.00;70.30
9544;DHT22;30418;51.45933468;7.33152330;2022-11-15T07:57:05;14.00;70.30
9544;DHT22;30418;51.45933468;7.33152330;2022-11-15T07:59:55;14.00;70.30
9544;DHT22;30418;51.45933468;7.33152330;2022-11-15T08:02:42;14.00;70.30
9544;DHT22;30418;51.45933468;7.33152330;2022-11-15T08:05:29;14.00;70.30
9544;DHT22;30418;51.45933468;7.33152330;2022-11-15T08:08:17;14.00;70.30
9544;DHT22;30418;51.45933468;7.33152330;2022-11-15T08:11:05;14.00;70.30
9544;DHT22;30418;51.45933468;7.33152330;2022-11-15T08:13:52;14.00;70.30
9544;DHT22;30418;51.45933468;7.33152330;2022-11-15T08:16:39;14.00;70.30
9544;DHT22;30418;51.45933468;7.33152330;2022-11-15T08:19:27;14.00;70.30
9544;DHT22;30418;51.45933468;7.33152330;2022-11-15T08:22:14;14.00;70.30
9544;DHT22;30418;51.45933468;7.33152330;2022-11-15T08:25:01;14.00;70.30
9544;DHT22;30418;51.45933468;7.33152330;2022-11-15T08:27:52;14.00;70.30
9544;DHT22;30418;51.45933468;7.33152330;2022-11-15T08:30:41;14.00;70.30
9544;DHT22;30418;51.45933468;7.33152330;2022-11-15T08:33:31;14.00;70.20
9544;DHT22;30418;51.45933468;7.33152330;2022-11-15T08:36:19;14.00;70.10
9544;DHT22;30418;51.45933468;7.33152330;2022-11-15T08:39:10;14.00;70.00
9544;DHT22;30418;51.45933468;7.33152330;2022-11-15T08:41:57;14.00;70.00
9544;DHT22;30418;51.45933468;7.33152330;2022-11-15T08:44:46;14.00;69.90
9544;DHT22;30418;51.45933468;7.33152330;2022-11-15T08:47:33;14.10;69.90
9544;DHT22;30418;51.45933468;7.33152330;2022-11-15T08:50:21;14.10;69.80
9544;DHT22;30418;51.45933468;7.33152330;2022-11-15T08:53:08;14.10;69.80
9544;DHT22;30418;51.45933468;7.33152330;2022-11-15T08:55:55;14.10;69.70
9544;DHT22;30418;51.45933468;7.33152330;2022-11-15T08:58:43;14.10;69.60
9544;DHT22;30418;51.45933468;7.33152330;2022-11-15T09:01:31;14.10;69.50
9544;DHT22;30418;51.45933468;7.33152330;2022-11-15T09:04:18;14.10;69.40
9544;DHT22;30418;51.45933468;7.33152330;2022-11-15T09:07:06;14.10;69.40
9544;DHT22;30418;51.45933468;7.33152330;2022-11-15T09:09:53;14.20;69.50
9544;DHT22;30418;51.45933468;7.33152330;2022-11-15T09:12:40;14.20;69.50
9544;DHT22;30418;51.45933468;7.33152330;2022-11-15T09:15:27;14.20;69.50
9544;DHT22;30418;51.45933468;7.33152330;2022-11-15T09:18:16;14.20;69.40
9544;DHT22;30418;51.45933468;7.33152330;2022-11-15T09:21:07;14.20;69.20
9544;DHT22;30418;51.45933468;7.33152330;2022-11-15T09:23:54;14.20;69.00
9544;DHT22;30418;51.45933468;7.33152330;2022-11-15T09:26:42;14.30;69.10
9544;DHT22;30418;51.45933468;7.33152330;2022-11-15T09:29:30;14.30;69.00
9544;DHT22;30418;51.45933468;7.33152330;2022-11-15T09:32:17;14.30;68.90
9544;DHT22;30418;51.45933468;7.33152330;2022-11-15T09:35:06;14.30;68.90
9544;DHT22;30418;51.45933468;7.33152330;2022-11-15T09:37:53;14.30;68.70
9544;DHT22;30418;51.45933468;7.33152330;2022-11-15T09:40:40;14.30;68.50
9544;DHT22;30418;51.45933468;7.33152330;2022-11-15T09:43:32;14.30;68.50
9544;DHT22;30418;51.45933468;7.33152330;2022-11-15T09:46:36;14.30;68.40
9544;DHT22;30418;51.45933468;7.33152330;2022-11-15T09:49:26;14.40;68.30
9544;DHT22;30418;51.45933468;7.33152330;2022-11-15T09:52:12;14.40;68.30
9544;DHT22;30418;51.45933468;7.33152330;2022-11-15T09:54:46;14.40;68.30
9544;DHT22;30418;51.45933468;7.33152330;2022-11-15T09:57:24;14.40;68.10
9544;DHT22;30418;51.45933468;7.33152330;2022-11-15T10:00:17;14.40;68.00
9544;DHT22;30418;51.45933468;7.33152330;2022-11-15T10:03:10;14.40;67.50
9544;DHT22;30418;51.45933468;7.33152330;2022-11-15T10:05:42;14.40;67.60
9544;DHT22;30418;51.45933468;7.33152330;2022-11-15T10:08:25;14.50;67.70
9544;DHT22;30418;51.45933468;7.33152330;2022-11-15T10:11:03;14.50;67.30
9544;DHT22;30418;51.45933468;7.33152330;2022-11-15T10:13:58;14.50;68.30
9544;DHT22;30418;51.45933468;7.33152330;2022-11-15T10:17:07;14.60;67.30
9544;DHT22;30418;51.45933468;7.33152330;2022-11-15T10:19:52;14.60;66.80
9544;DHT22;30418;51.45933468;7.33152330;2022-11-15T10:22:37;14.60;66.80
9544;DHT22;30418;51.45933468;7.33152330;2022-11-15T10:25:17;14.60;66.80
9544;DHT22;30418;51.45933468;7.33152330;2022-11-15T10:27:55;14.60;66.70
9544;DHT22;30418;51.45933468;7.33152330;2022-11-15T10:30:32;14.60;66.80
9544;DHT22;30418;51.45933468;7.33152330;2022-11-15T10:36:20;14.70;66.60
9544;DHT22;30418;51.45933468;7.33152330;2022-11-15T10:38:54;14.70;66.50
9544;DHT22;30418;51.45933468;7.33152330;2022-11-15T10:41:40;14.70;66.60
9544;DHT22;30418;51.45933468;7.33152330;2022-11-15T10:44:25;14.70;66.30
9544;DHT22;30418;51.45933468;7.33152330;2022-11-15T10:50:04;14.80;66.00
9544;DHT22;30418;51.45933468;7.33152330;2022-11-15T10:52:35;14.80;65.90
9544;DHT22;30418;51.45933468;7.33152330;2022-11-15T10:55:21;14.80;65.70
9544;DHT22;30418;51.45933468;7.33152330;2022-11-15T10:57:56;14.80;65.30
9544;DHT22;30418;51.45933468;7.33152330;2022-11-15T11:00:30;14.80;65.40
9544;DHT22;30418;51.45933468;7.33152330;2022-11-15T11:03:03;14.90;65.40
9544;DHT22;30418;51.45933468;7.33152330;2022-11-15T11:05:35;14.90;65.50
9544;DHT22;30418;51.45933468;7.33152330;2022-11-15T11:08:22;14.90;65.50
9544;DHT22;30418;51.45933468;7.33152330;2022-11-15T11:10:53;14.90;65.00
9544;DHT22;30418;51.45933468;7.33152330;2022-11-15T11:13:33;14.90;65.20
9544;DHT22;30418;51.45933468;7.33152330;2022-11-15T11:16:21;14.90;65.10
9544;DHT22;30418;51.45933468;7.33152330;2022-11-15T11:19:01;15.00;65.00
9544;DHT22;30418;51.45933468;7.33152330;2022-11-15T11:21:42;15.00;65.00
9544;DHT22;30418;51.45933468;7.33152330;2022-11-15T11:24:23;15.00;64.50
9544;DHT22;30418;51.45933468;7.33152330;2022-11-15T11:27:13;15.00;64.60
9544;DHT22;30418;51.45933468;7.33152330;2022-11-15T11:30:00;15.10;64.40
9544;DHT22;30418;51.45933468;7.33152330;2022-11-15T11:35:50;15.10;64.10
9544;DHT22;30418;51.45933468;7.33152330;2022-11-15T11:38:34;15.10;63.70
9544;DHT22;30418;51.45933468;7.33152330;2022-11-15T11:41:13;15.10;63.20
9544;DHT22;30418;51.45933468;7.33152330;2022-11-15T11:43:53;15.20;63.30
9544;DHT22;30418;51.45933468;7.33152330;2022-11-15T11:49:30;15.20;62.70
9544;DHT22;30418;51.45933468;7.33152330;2022-11-15T11:52:09;15.20;63.00
9544;DHT22;30418;51.45933468;7.33152330;2022-11-15T11:54:48;15.20;62.80
9544;DHT22;30418;51.45933468;7.33152330;2022-11-15T11:57:27;15.20;62.50
9544;DHT22;30418;51.45933468;7.33152330;2022-11-15T12:00:03;15.20;62.50
9544;DHT22;30418;51.45933468;7.33152330;2022-11-15T12:02:43;15.30;62.60
9544;DHT22;30418;51.45933468;7.33152330;2022-11-15T12:05:18;15.30;62.30
9544;DHT22;30418;51.45933468;7.33152330;2022-11-15T12:08:04;15.30;62.10
9544;DHT22;30418;51.45933468;7.33152330;2022-11-15T12:10:46;15.30;61.80
9544;DHT22;30418;51.45933468;7.33152330;2022-11-15T12:13:19;15.30;61.20
9544;DHT22;30418;51.45933468;7.33152330;2022-11-15T12:15:55;15.30;61.10
9544;DHT22;30418;51.45933468;7.33152330;2022-11-15T12:18:28;15.30;60.80
9544;DHT22;30418;51.45933468;7.33152330;2022-11-15T12:21:03;15.30;60.70
9544;DHT22;30418;51.45933468;7.33152330;2022-11-15T12:23:42;15.30;60.40
9544;DHT22;30418;51.45933468;7.33152330;2022-11-15T12:26:18;15.30;60.60
9544;DHT22;30418;51.45933468;7.33152330;2022-11-15T12:28:52;15.30;60.40
9544;DHT22;30418;51.45933468;7.33152330;2022-11-15T12:31:37;15.30;60.40
9544;DHT22;30418;51.45933468;7.33152330;2022-11-15T12:34:30;15.40;60.30
9544;DHT22;30418;51.45933468;7.33152330;2022-11-15T12:40:28;15.40;60.00
9544;DHT22;30418;51.45933468;7.33152330;2022-11-15T12:46:05;15.40;60.20
9544;DHT22;30418;51.45933468;7.33152330;2022-11-15T12:48:57;15.40;60.50
9544;DHT22;30418;51.45933468;7.33152330;2022-11-15T12:54:57;15.40;60.20
9544;DHT22;30418;51.45933468;7.33152330;2022-11-15T12:57:48;15.40;60.00
9544;DHT22;30418;51.45933468;7.33152330;2022-11-15T13:00:44;15.40;60.00
9544;DHT22;30418;51.45933468;7.33152330;2022-11-15T13:03:31;15.40;59.90
9544;DHT22;30418;51.45933468;7.33152330;2022-11-15T13:06:09;15.40;59.90
9544;DHT22;30418;51.45933468;7.33152330;2022-11-15T13:12:56;15.40;59.80
9544;DHT22;30418;51.45933468;7.33152330;2022-11-15T13:18:35;15.40;59.80
9544;DHT22;30418;51.45933468;7.33152330;2022-11-15T13:21:20;15.40;60.00
9544;DHT22;30418;51.45933468;7.33152330;2022-11-15T13:24:13;15.40;59.90
9544;DHT22;30418;51.45933468;7.33152330;2022-11-15T13:26:45;15.40;60.00
9544;DHT22;30418;51.45933468;7.33152330;2022-11-15T13:29:18;15.40;60.00
9544;DHT22;30418;51.45933468;7.33152330;2022-11-15T13:31:48;15.40;60.00
9544;DHT22;30418;51.45933468;7.33152330;2022-11-15T13:34:24;15.50;60.10
9544;DHT22;30418;51.45933468;7.33152330;2022-11-15T13:37:28;15.50;60.10
9544;DHT22;30418;51.45933468;7.33152330;2022-11-15T13:40:15;15.50;59.90
9544;DHT22;30418;51.45933468;7.33152330;2022-11-15T13:42:50;15.50;59.90
9544;DHT22;30418;51.45933468;7.33152330;2022-11-15T13:45:19;15.50;60.10
9544;DHT22;30418;51.45933468;7.33152330;2022-11-15T13:47:53;15.50;60.10
9544;DHT22;30418;51.45933468;7.33152330;2022-11-15T13:50:27;15.50;60.00
9544;DHT22;30418;51.45933468;7.33152330;2022-11-15T13:53:00;15.50;60.00
9544;DHT22;30418;51.45933468;7.33152330;2022-11-15T13:55:32;15.50;59.90
9544;DHT22;30418;51.45933468;7.33152330;2022-11-15T13:58:03;15.50;59.90
9544;DHT22;30418;51.45933468;7.33152330;2022-11-15T14:00:36;15.40;59.70
9544;DHT22;30418;51.45933468;7.33152330;2022-11-15T14:03:12;15.40;59.80
9544;DHT22;30418;51.45933468;7.33152330;2022-11-15T14:05:46;15.40;59.70
9544;DHT22;30418;51.45933468;7.33152330;2022-11-15T14:08:31;15.40;59.80
9544;DHT22;30418;51.45933468;7.33152330;2022-11-15T14:11:09;15.40;59.90
9544;DHT22;30418;51.45933468;7.33152330;2022-11-15T14:14:02;15.40;59.80
9544;DHT22;30418;51.45933468;7.33152330;2022-11-15T14:16:41;15.40;59.90
9544;DHT22;30418;51.45933468;7.33152330;2022-11-15T14:19:12;15.40;60.00
9544;DHT22;30418;51.45933468;7.33152330;2022-11-15T14:22:13;15.30;60.00
9544;DHT22;30418;51.45933468;7.33152330;2022-11-15T14:24:45;15.30;59.90
9544;DHT22;30418;51.45933468;7.33152330;2022-11-15T14:27:20;15.30;60.00
9544;DHT22;30418;51.45933468;7.33152330;2022-11-15T14:29:52;15.30;60.00
9544;DHT22;30418;51.45933468;7.33152330;2022-11-15T14:32:22;15.30;60.10
9544;DHT22;30418;51.45933468;7.33152330;2022-11-15T14:34:54;15.30;60.10
9544;DHT22;30418;51.45933468;7.33152330;2022-11-15T14:37:26;15.30;60.10
9544;DHT22;30418;51.45933468;7.33152330;2022-11-15T14:39:55;15.30;60.10
9544;DHT22;30418;51.45933468;7.33152330;2022-11-15T14:42:24;15.30;60.20
9544;DHT22;30418;51.45933468;7.33152330;2022-11-15T14:44:54;15.30;60.40
9544;DHT22;30418;51.45933468;7.33152330;2022-11-15T14:47:23;15.30;60.30
9544;DHT22;30418;51.45933468;7.33152330;2022-11-15T14:49:52;15.30;60.20
9544;DHT22;30418;51.45933468;7.33152330;2022-11-15T14:52:27;15.30;60.20
9544;DHT22;30418;51.45933468;7.33152330;2022-11-15T14:55:00;15.30;60.10
9544;DHT22;30418;51.45933468;7.33152330;2022-11-15T14:57:29;15.30;60.20
9544;DHT22;30418;51.45933468;7.33152330;2022-11-15T14:59:59;15.30;60.20
9544;DHT22;30418;51.45933468;7.33152330;2022-11-15T15:02:39;15.30;60.20
9544;DHT22;30418;51.45933468;7.33152330;2022-11-15T15:05:16;15.30;60.20
9544;DHT22;30418;51.45933468;7.33152330;2022-11-15T15:07:46;15.30;60.20
9544;DHT22;30418;51.45933468;7.33152330;2022-11-15T15:10:16;15.30;60.20
9544;DHT22;30418;51.45933468;7.33152330;2022-11-15T15:13:06;15.30;60.30
9544;DHT22;30418;51.45933468;7.33152330;2022-11-15T15:15:42;15.30;60.40
9544;DHT22;30418;51.45933468;7.33152330;2022-11-15T15:18:10;15.30;60.40
9544;DHT22;30418;51.45933468;7.33152330;2022-11-15T15:20:40;15.30;60.30
9544;DHT22;30418;51.45933468;7.33152330;2022-11-15T15:23:15;15.30;60.40
9544;DHT22;30418;51.45933468;7.33152330;2022-11-15T15:25:45;15.30;60.40
9544;DHT22;30418;51.45933468;7.33152330;2022-11-15T15:28:15;15.30;60.40
9544;DHT22;30418;51.45933468;7.33152330;2022-11-15T15:30:45;15.30;60.40
9544;DHT22;30418;51.45933468;7.33152330;2022-11-15T15:33:14;15.30;60.40
9544;DHT22;30418;51.45933468;7.33152330;2022-11-15T15:35:43;15.30;60.40
9544;DHT22;30418;51.45933468;7.33152330;2022-11-15T15:38:14;15.30;60.40
9544;DHT22;30418;51.45933468;7.33152330;2022-11-15T15:40:42;15.30;60.50
9544;DHT22;30418;51.45933468;7.33152330;2022-11-15T15:43:11;15.30;60.50
9544;DHT22;30418;51.45933468;7.33152330;2022-11-15T15:45:41;15.30;60.40